createdAt,value
2023-03-01T00:02:58.456Z,41.08
2023-03-01T00:07:02.957Z,48.65
2023-03-01T00:11:10.637Z,49.10
2023-03-01T00:15:16.989Z,42.20
2023-03-01T00:19:23.156Z,42.65
2023-03-01T00:23:31.090Z,46.15
2023-03-01T00:27:34.813Z,52.25
2023-03-01T00:31:39.721Z,57.78
2023-03-01T00:35:43.258Z,47.85
2023-03-01T00:39:48.200Z,41.53
2023-03-01T00:43:52.244Z,42.80
2023-03-01T00:47:57.016Z,50.55
2023-03-01T00:52:00.102Z,37.92
2023-03-01T00:56:05.498Z,54.28
2023-03-01T01:00:10.818Z,47.60
2023-03-01T01:04:15.608Z,49.85
2023-03-01T01:08:18.848Z,44.70
2023-03-01T01:12:26.345Z,17.17
2023-03-01T01:16:32.023Z,39.92
2023-03-01T01:20:35.502Z,44.28
2023-03-01T01:24:38.789Z,35.92
2023-03-01T01:28:44.324Z,40.92
2023-03-01T01:32:47.445Z,38.95
2023-03-01T01:36:51.964Z,38.20
2023-03-01T01:40:55.185Z,34.03
2023-03-01T01:45:36.575Z,42.08
2023-03-01T01:49:45.501Z,37.25
2023-03-01T01:53:53.660Z,41.55
2023-03-01T01:58:00.536Z,42.28
2023-03-01T02:02:05.887Z,45.67
2023-03-01T02:06:19.318Z,48.80
2023-03-01T02:10:23.586Z,36.67
2023-03-01T02:14:27.689Z,43.20
2023-03-01T02:18:30.826Z,33.45
2023-03-01T02:22:40.918Z,38.05
2023-03-01T02:26:51.275Z,36.90
2023-03-01T02:31:13.831Z,41.72
2023-03-01T02:35:20.376Z,43.63
2023-03-01T02:39:28.764Z,28.50
2023-03-01T02:43:34.974Z,36.65
2023-03-01T02:47:39.588Z,33.85
2023-03-01T02:51:53.382Z,37.17
2023-03-01T02:55:56.758Z,41.50
2023-03-01T03:00:08.292Z,37.97
2023-03-01T03:04:18.069Z,35.17
2023-03-01T03:08:25.268Z,35.47
2023-03-01T03:12:28.597Z,39.17
2023-03-01T03:16:32.202Z,44.45
2023-03-01T03:20:39.064Z,32.13
2023-03-01T03:24:42.068Z,39.88
2023-03-01T03:28:45.125Z,39.58
2023-03-01T03:32:55.854Z,25.77
2023-03-01T03:37:00.675Z,38.25
2023-03-01T03:41:05.959Z,33.97
2023-03-01T03:45:10.015Z,44.17
2023-03-01T03:49:13.140Z,37.63
2023-03-01T03:53:17.720Z,39.85
2023-03-01T04:01:23.266Z,34.28
2023-03-01T04:05:29.648Z,30.73
2023-03-01T04:09:33.736Z,35.83
2023-03-01T04:13:38.586Z,38.88
2023-03-01T04:17:42.661Z,35.80
2023-03-01T04:21:45.744Z,39.40
2023-03-01T04:25:55.170Z,36.63
2023-03-01T04:29:57.920Z,32.15
2023-03-01T04:34:03.698Z,40.45
2023-03-01T04:38:07.608Z,28.95
2023-03-01T04:42:11.713Z,24.10
2023-03-01T04:46:17.525Z,27.95
2023-03-01T04:50:22.812Z,33.67
2023-03-01T04:54:27.608Z,27.98
2023-03-01T04:58:32.172Z,34.58
2023-03-01T05:02:37.283Z,30.42
2023-03-01T05:06:40.632Z,26.75
2023-03-01T05:10:43.755Z,36.63
2023-03-01T05:14:48.410Z,37.58
2023-03-01T05:18:55.734Z,34.80
2023-03-01T05:23:06.487Z,32.25
2023-03-01T05:27:10.269Z,33.47
2023-03-01T05:31:14.911Z,30.70
2023-03-01T05:35:20.317Z,33.90
2023-03-01T05:39:24.424Z,26.67
2023-03-01T05:43:30.636Z,33.83
2023-03-01T05:47:34.969Z,30.15
2023-03-01T05:51:38.204Z,30.55
2023-03-01T05:55:42.690Z,39.17
2023-03-01T05:59:45.826Z,32.67
2023-03-01T06:03:50.237Z,30.05
2023-03-01T06:07:54.208Z,29.27
2023-03-01T06:24:09.605Z,26.35
2023-03-01T06:28:12.400Z,28.80
2023-03-01T06:32:15.590Z,22.02
2023-03-01T06:36:23.190Z,28.67
2023-03-01T06:40:26.734Z,25.02
2023-03-01T06:44:30.446Z,26.98
2023-03-01T06:48:33.770Z,25.98
2023-03-01T06:52:38.736Z,28.63
2023-03-01T06:56:42.253Z,30.27
2023-03-01T07:00:45.668Z,29.08
2023-03-01T07:04:50.210Z,29.10
2023-03-01T07:08:54.891Z,23.08
2023-03-01T07:13:02.157Z,26.52
2023-03-01T07:17:05.296Z,28.08
2023-03-01T07:25:13.559Z,26.92
2023-03-01T07:29:16.724Z,29.85
2023-03-01T07:33:20.029Z,25.70
2023-03-01T07:37:22.876Z,31.88
2023-03-01T07:41:27.445Z,26.75
2023-03-01T07:45:31.445Z,29.48
2023-03-01T07:49:34.990Z,29.05
2023-03-01T07:57:42.008Z,26.90
2023-03-01T08:01:47.146Z,26.00
2023-03-01T08:05:52.048Z,27.17
2023-03-01T08:09:55.085Z,21.45
2023-03-01T08:13:59.877Z,25.42
2023-03-01T08:18:03.285Z,23.75
2023-03-01T08:22:06.848Z,25.95
2023-03-01T08:26:13.111Z,22.40
2023-03-01T08:30:18.335Z,25.35
2023-03-01T08:34:21.848Z,18.65
2023-03-01T08:38:25.201Z,11.55
2023-03-01T08:42:28.316Z,22.70
2023-03-01T08:46:38.314Z,19.23
2023-03-01T08:50:42.554Z,16.30
2023-03-01T08:54:45.394Z,17.17
2023-03-01T08:58:51.289Z,16.13
2023-03-01T09:02:55.465Z,17.85
2023-03-01T09:06:58.910Z,17.95
2023-03-01T09:11:03.886Z,14.15
2023-03-01T09:15:10.290Z,17.92
2023-03-01T09:19:15.849Z,14.93
2023-03-01T09:23:22.133Z,15.32
2023-03-01T09:27:26.307Z,14.73
2023-03-01T09:31:29.285Z,11.45
2023-03-01T09:35:33.901Z,11.50
2023-03-01T09:39:37.186Z,10.30
2023-03-01T09:43:48.126Z,12.93
2023-03-01T09:47:51.865Z,9.73
2023-03-01T09:52:02.482Z,11.88
2023-03-01T09:56:14.134Z,12.00
2023-03-01T10:00:26.438Z,14.75
2023-03-01T10:04:41.871Z,13.02
2023-03-01T10:08:55.399Z,11.82
2023-03-01T10:12:59.318Z,16.02
2023-03-01T10:17:10.712Z,13.65
2023-03-01T10:21:18.476Z,16.42
2023-03-01T10:25:44.608Z,13.57
2023-03-01T10:29:57.547Z,16.88
2023-03-01T10:34:02.376Z,12.77
2023-03-01T10:38:10.498Z,13.32
2023-03-01T10:42:26.279Z,17.70
2023-03-01T10:46:31.314Z,17.67
2023-03-01T10:50:34.868Z,17.08
2023-03-01T10:54:37.334Z,13.73
2023-03-01T10:58:44.126Z,18.80
2023-03-01T11:02:52.294Z,17.55
2023-03-01T11:07:01.893Z,15.80
2023-03-01T11:11:25.897Z,12.90
2023-03-01T11:15:32.084Z,16.80
2023-03-01T11:19:35.748Z,17.90
2023-03-01T11:23:51.576Z,13.00
2023-03-01T11:27:58.800Z,9.30
2023-03-01T11:32:07.259Z,13.50
2023-03-01T11:36:19.452Z,13.65
2023-03-01T11:40:27.469Z,15.23
2023-03-01T11:44:36.066Z,13.15
2023-03-01T11:48:52.368Z,10.77
2023-03-01T11:53:06.608Z,6.70
2023-03-01T11:57:21.758Z,10.20
2023-03-01T12:01:41.034Z,9.20
2023-03-01T12:06:04.782Z,8.50
2023-03-01T12:10:24.539Z,11.80
2023-03-01T12:14:51.702Z,9.90
2023-03-01T12:19:18.408Z,10.98
2023-03-01T12:23:52.651Z,9.80
2023-03-01T12:32:26.305Z,11.60
2023-03-01T12:36:54.708Z,11.07
2023-03-01T12:41:40.003Z,11.32
2023-03-01T12:46:06.843Z,17.02
2023-03-01T12:50:20.377Z,10.77
2023-03-01T12:54:29.600Z,12.25
2023-03-01T12:58:49.247Z,12.93
2023-03-01T13:03:00.684Z,7.70
2023-03-01T13:07:28.531Z,18.45
2023-03-01T13:11:31.650Z,12.70
2023-03-01T13:19:59.292Z,16.63
2023-03-01T13:24:02.751Z,15.23
2023-03-01T13:28:41.905Z,19.58
2023-03-01T13:32:46.986Z,16.13
2023-03-01T13:36:52.334Z,20.13
2023-03-01T13:41:07.730Z,21.75
2023-03-01T13:45:22.105Z,21.17
2023-03-01T13:49:33.400Z,16.88
2023-03-01T13:53:49.182Z,13.32
2023-03-01T13:57:56.511Z,17.17
2023-03-01T14:02:01.749Z,14.32
2023-03-01T14:06:15.953Z,18.98
2023-03-01T14:10:21.207Z,14.80
2023-03-01T14:14:41.716Z,17.98
2023-03-01T14:18:54.152Z,16.13
2023-03-01T14:22:59.806Z,16.77
2023-03-01T14:27:08.069Z,18.65
2023-03-01T14:31:52.415Z,16.10
2023-03-01T14:36:01.681Z,17.85
2023-03-01T14:40:07.659Z,17.05
2023-03-01T14:44:19.378Z,19.33
2023-03-01T14:48:26.228Z,16.00
2023-03-01T14:52:37.128Z,15.52
2023-03-01T14:56:50.254Z,15.15
2023-03-01T15:00:57.500Z,16.38
2023-03-01T15:05:08.442Z,15.27
2023-03-01T15:09:18.172Z,22.48
2023-03-01T15:13:25.592Z,19.98
2023-03-01T15:17:35.593Z,19.65
2023-03-01T15:21:40.626Z,17.88
2023-03-01T15:25:47.739Z,14.35
2023-03-01T15:29:58.465Z,15.63
2023-03-01T15:34:24.767Z,14.27
2023-03-01T15:38:34.680Z,18.25
2023-03-01T15:42:41.286Z,14.57
2023-03-01T15:46:51.283Z,21.17
2023-03-01T15:51:00.541Z,15.68
2023-03-01T15:59:10.193Z,15.85
2023-03-01T16:03:13.888Z,16.33
2023-03-01T16:07:19.229Z,17.95
2023-03-01T16:11:27.764Z,21.88
2023-03-01T16:15:35.654Z,18.92
2023-03-01T16:19:39.711Z,26.63
2023-03-01T16:23:44.523Z,21.02
2023-03-01T16:27:48.706Z,29.90
2023-03-01T16:31:51.602Z,25.15
2023-03-01T16:35:55.389Z,39.40
2023-03-01T16:40:00.477Z,33.63
2023-03-01T16:44:03.586Z,23.20
2023-03-01T16:48:09.499Z,23.75
2023-03-01T16:52:15.360Z,21.30
2023-03-01T16:56:21.241Z,21.42
2023-03-01T17:00:25.309Z,25.88
2023-03-01T17:04:28.854Z,32.05
2023-03-01T17:08:31.708Z,35.40
2023-03-01T17:12:37.408Z,33.85
2023-03-01T17:16:44.456Z,30.60
2023-03-01T17:20:47.519Z,30.92
2023-03-01T17:24:56.581Z,27.83
2023-03-01T17:29:01.108Z,33.47
2023-03-01T17:33:04.329Z,37.33
2023-03-01T17:37:07.409Z,28.08
2023-03-01T17:41:12.445Z,35.40
2023-03-01T17:45:16.608Z,36.95
2023-03-01T17:49:19.787Z,44.03
2023-03-01T17:53:25.821Z,43.70
2023-03-01T17:57:29.065Z,38.97
2023-03-01T18:01:35.826Z,44.38
2023-03-01T18:05:39.140Z,34.45
2023-03-01T18:09:42.520Z,29.77
2023-03-01T18:13:46.334Z,29.17
2023-03-01T18:17:51.300Z,28.70
2023-03-01T18:21:54.902Z,34.35
2023-03-01T18:26:00.948Z,31.48
2023-03-01T18:30:06.434Z,33.08
2023-03-01T18:34:14.012Z,29.98
2023-03-01T18:38:22.103Z,27.75
2023-03-01T18:42:25.891Z,24.88
2023-03-01T18:46:29.056Z,25.92
2023-03-01T18:50:33.771Z,21.98
2023-03-01T18:54:36.944Z,29.02
2023-03-01T18:58:42.677Z,25.15
2023-03-01T19:02:45.773Z,27.25
2023-03-01T19:06:50.284Z,22.85
2023-03-01T19:11:00.164Z,31.77
2023-03-01T19:19:09.922Z,33.47
2023-03-01T19:23:14.370Z,40.15
2023-03-01T19:27:22.820Z,37.50
2023-03-01T19:31:28.956Z,42.15
2023-03-01T19:35:32.162Z,50.90
2023-03-01T19:39:36.543Z,49.47
2023-03-01T19:43:39.840Z,53.67
2023-03-01T19:47:42.881Z,57.60
2023-03-01T19:51:46.229Z,58.33
2023-03-01T19:55:53.812Z,53.10
2023-03-01T19:59:56.953Z,49.00
2023-03-01T20:04:00.248Z,52.65
2023-03-01T20:08:09.704Z,47.72
2023-03-01T20:12:14.043Z,52.53
2023-03-01T20:16:19.237Z,48.72
2023-03-01T20:20:21.991Z,48.88
2023-03-01T20:24:24.965Z,47.50
2023-03-01T20:28:29.214Z,50.15
2023-03-01T20:32:32.630Z,45.35
2023-03-01T20:36:38.759Z,40.88
2023-03-01T20:40:41.641Z,50.58
2023-03-01T20:44:46.525Z,48.40
2023-03-01T20:48:51.643Z,45.35
2023-03-01T20:52:57.410Z,47.88
2023-03-01T20:57:01.002Z,45.72
2023-03-01T21:01:07.298Z,45.42
2023-03-01T21:05:11.053Z,43.78
2023-03-01T21:09:14.199Z,37.55
2023-03-01T21:13:17.413Z,44.75
2023-03-01T21:17:22.151Z,53.22
2023-03-01T21:21:25.722Z,49.83
2023-03-01T21:25:35.107Z,47.05
2023-03-01T21:29:40.029Z,50.53
2023-03-01T21:33:48.841Z,50.33
2023-03-01T21:37:52.115Z,61.42
2023-03-01T21:42:15.686Z,62.28
2023-03-01T21:46:23.104Z,64.53
2023-03-01T21:50:27.813Z,73.40
2023-03-01T21:54:34.187Z,71.05
2023-03-01T21:58:39.316Z,64.32
2023-03-01T22:02:42.664Z,74.35
2023-03-01T22:06:48.598Z,75.70
2023-03-01T22:10:51.851Z,77.45
2023-03-01T22:14:54.521Z,75.43
2023-03-01T22:18:58.493Z,70.32
2023-03-01T22:27:06.334Z,75.72
2023-03-01T22:31:09.520Z,75.47
2023-03-01T22:35:13.047Z,70.82
2023-03-01T22:39:21.201Z,72.55
2023-03-01T22:43:23.896Z,68.00
2023-03-01T22:47:26.991Z,65.90
2023-03-01T22:51:32.730Z,70.80
2023-03-01T22:55:37.330Z,66.35
2023-03-01T22:59:41.651Z,63.75
2023-03-01T23:03:45.094Z,56.33
2023-03-01T23:07:48.352Z,60.55
2023-03-01T23:11:54.804Z,67.03
2023-03-01T23:15:59.538Z,79.53
2023-03-01T23:20:02.648Z,77.45
2023-03-01T23:24:07.853Z,61.10
2023-03-01T23:28:17.443Z,56.35
2023-03-01T23:32:20.713Z,71.55
2023-03-01T23:36:26.469Z,68.22
2023-03-01T23:40:32.044Z,64.25
2023-03-01T23:44:39.095Z,65.50
2023-03-01T23:48:42.538Z,63.60
2023-03-01T23:52:45.152Z,62.70
2023-03-01T23:56:49.273Z,68.45
